OCN655 LEMD-LEPA
Flight info
| Callsign | OCN655 |
|---|---|
| Flight time | 1h 14m |
| Altitude | 30000 |
| Route | NANDO T257 FENXE/N0390F320 T257 LASPO/N0352F260 M871 GODOX |
| Aircraft | A332/H-SDE3GHIJ2J3J5M1RVWXY/LB2D1 |
Departure
| Time | 2026-05-07 18:04 |
|---|---|
| Airport | Adolfo Suárez Madrid–Barajas Airport (LEMD) |
Arrival
| Time | 2026-05-07 19:18 |
|---|---|
| Airport | Palma de Mallorca Airport (LEPA) |
| Time | Latitude | Longitude | Altitude | Speed | Heading |
|---|---|---|---|---|---|
| 2026-05-07 17:43 | 40.48960 | -3.58719 | 1999 ft | 0 kts | 271° |
| 2026-05-07 17:53 | 40.48960 | -3.58722 | 1999 ft | 1 kts | 270° |
| 2026-05-07 17:53 | 40.48960 | -3.58738 | 2031 ft | 3 kts | 268° |
| 2026-05-07 17:53 | 40.48956 | -3.58775 | 2029 ft | 6 kts | 257° |
| 2026-05-07 17:54 | 40.48923 | -3.58804 | 2030 ft | 8 kts | 197° |
| 2026-05-07 17:54 | 40.48855 | -3.58810 | 2034 ft | 13 kts | 181° |
| 2026-05-07 17:54 | 40.48766 | -3.58776 | 2037 ft | 14 kts | 117° |
| 2026-05-07 17:54 | 40.48759 | -3.58630 | 2028 ft | 18 kts | 89° |
| 2026-05-07 17:55 | 40.48760 | -3.58439 | 2018 ft | 24 kts | 89° |
| 2026-05-07 17:55 | 40.48761 | -3.58187 | 2012 ft | 31 kts | 90° |
| 2026-05-07 17:55 | 40.48795 | -3.58057 | 2003 ft | 14 kts | 19° |
| 2026-05-07 17:55 | 40.48855 | -3.57974 | 2002 ft | 15 kts | 85° |
| 2026-05-07 17:56 | 40.48859 | -3.57799 | 1998 ft | 23 kts | 90° |
| 2026-05-07 17:56 | 40.48859 | -3.57572 | 1993 ft | 27 kts | 90° |
| 2026-05-07 17:56 | 40.48859 | -3.57297 | 1988 ft | 32 kts | 90° |
| 2026-05-07 17:56 | 40.48861 | -3.57007 | 1983 ft | 28 kts | 90° |
| 2026-05-07 17:57 | 40.48861 | -3.56737 | 1978 ft | 30 kts | 90° |
| 2026-05-07 17:57 | 40.48862 | -3.56547 | 1974 ft | 32 kts | 89° |
| 2026-05-07 17:57 | 40.48885 | -3.56441 | 1975 ft | 4 kts | 94° |
| 2026-05-07 17:57 | 40.48875 | -3.56354 | 1969 ft | 13 kts | 99° |
| 2026-05-07 17:58 | 40.48908 | -3.56253 | 1966 ft | 14 kts | 19° |
| 2026-05-07 17:58 | 40.49001 | -3.56244 | 1966 ft | 14 kts | 360° |
| 2026-05-07 17:58 | 40.49115 | -3.56246 | 1966 ft | 18 kts | 0° |
| 2026-05-07 17:58 | 40.49254 | -3.56244 | 1965 ft | 22 kts | 1° |
| 2026-05-07 17:59 | 40.49417 | -3.56247 | 1965 ft | 25 kts | 360° |
| 2026-05-07 17:59 | 40.49599 | -3.56248 | 1965 ft | 27 kts | 360° |
| 2026-05-07 17:59 | 40.49796 | -3.56250 | 1965 ft | 29 kts | 0° |
| 2026-05-07 17:59 | 40.49952 | -3.56256 | 1965 ft | 19 kts | 355° |
| 2026-05-07 18:00 | 40.50084 | -3.56255 | 1969 ft | 18 kts | 13° |
| 2026-05-07 18:00 | 40.50116 | -3.56185 | 1963 ft | 7 kts | 92° |
| 2026-05-07 18:00 | 40.50116 | -3.56094 | 1962 ft | 13 kts | 86° |
| 2026-05-07 18:00 | 40.50146 | -3.55980 | 1963 ft | 13 kts | 57° |
| 2026-05-07 18:01 | 40.50218 | -3.55923 | 1967 ft | 12 kts | 5° |
| 2026-05-07 18:01 | 40.50238 | -3.55922 | 1965 ft | 0 kts | 0° |
| 2026-05-07 18:02 | 40.50239 | -3.55922 | 1965 ft | 0 kts | 0° |
| 2026-05-07 18:03 | 40.50363 | -3.55923 | 1966 ft | 46 kts | 359° |
| 2026-05-07 18:03 | 40.50917 | -3.55927 | 1966 ft | 111 kts | 359° |
| 2026-05-07 18:04 | 40.51852 | -3.55931 | 2112 ft | 147 kts | 360° |
| 2026-05-07 18:04 | 40.52905 | -3.55927 | 2701 ft | 158 kts | 1° |
| 2026-05-07 18:04 | 40.54048 | -3.55898 | 3387 ft | 166 kts | 8° |
| 2026-05-07 18:04 | 40.55216 | -3.55468 | 3832 ft | 189 kts | 25° |
| 2026-05-07 18:05 | 40.56494 | -3.54657 | 4259 ft | 218 kts | 28° |
| 2026-05-07 18:05 | 40.57952 | -3.53852 | 4992 ft | 231 kts | 15° |
| 2026-05-07 18:05 | 40.59486 | -3.53247 | 5962 ft | 235 kts | 26° |
| 2026-05-07 18:05 | 40.60875 | -3.52028 | 6776 ft | 244 kts | 37° |
| 2026-05-07 18:06 | 40.62227 | -3.50621 | 7705 ft | 250 kts | 40° |
| 2026-05-07 18:06 | 40.63572 | -3.49137 | 8717 ft | 254 kts | 40° |
| 2026-05-07 18:06 | 40.64918 | -3.47636 | 9726 ft | 259 kts | 40° |
| 2026-05-07 18:06 | 40.66308 | -3.46080 | 10659 ft | 263 kts | 40° |
| 2026-05-07 18:07 | 40.67718 | -3.44503 | 11563 ft | 266 kts | 40° |
| 2026-05-07 18:07 | 40.69110 | -3.42841 | 12232 ft | 277 kts | 48° |
| 2026-05-07 18:07 | 40.70175 | -3.40628 | 12552 ft | 297 kts | 71° |
| 2026-05-07 18:07 | 40.70390 | -3.37895 | 12839 ft | 315 kts | 101° |
| 2026-05-07 18:08 | 40.69534 | -3.35184 | 13170 ft | 329 kts | 126° |
| 2026-05-07 18:08 | 40.68098 | -3.32759 | 13735 ft | 338 kts | 131° |
| 2026-05-07 18:08 | 40.66585 | -3.30354 | 14330 ft | 344 kts | 131° |
| 2026-05-07 18:08 | 40.65060 | -3.27887 | 14943 ft | 348 kts | 130° |
| 2026-05-07 18:09 | 40.63552 | -3.25396 | 15592 ft | 352 kts | 130° |
| 2026-05-07 18:09 | 40.62034 | -3.22859 | 16223 ft | 356 kts | 130° |
| 2026-05-07 18:09 | 40.60502 | -3.20281 | 16852 ft | 359 kts | 129° |
| 2026-05-07 18:09 | 40.58955 | -3.17668 | 17450 ft | 363 kts | 129° |
| 2026-05-07 18:10 | 40.57395 | -3.15032 | 18053 ft | 367 kts | 129° |
| 2026-05-07 18:10 | 40.55814 | -3.12359 | 18584 ft | 370 kts | 129° |
| 2026-05-07 18:10 | 40.54228 | -3.09676 | 19082 ft | 374 kts | 129° |
| 2026-05-07 18:10 | 40.52640 | -3.06993 | 19568 ft | 377 kts | 129° |
| 2026-05-07 18:11 | 40.51019 | -3.04257 | 20049 ft | 380 kts | 130° |
| 2026-05-07 18:11 | 40.49936 | -3.02429 | 20380 ft | 383 kts | 130° |
| 2026-05-07 18:11 | 40.47734 | -2.98715 | 21027 ft | 387 kts | 130° |
| 2026-05-07 18:11 | 40.46078 | -2.95926 | 21529 ft | 390 kts | 130° |
| 2026-05-07 18:12 | 40.44403 | -2.93107 | 22001 ft | 393 kts | 130° |
| 2026-05-07 18:12 | 40.42708 | -2.90258 | 22425 ft | 397 kts | 130° |
| 2026-05-07 18:12 | 40.40998 | -2.87386 | 22885 ft | 401 kts | 130° |
| 2026-05-07 18:12 | 40.39270 | -2.84486 | 23363 ft | 404 kts | 130° |
| 2026-05-07 18:13 | 40.37550 | -2.81603 | 23767 ft | 408 kts | 130° |
| 2026-05-07 18:13 | 40.35766 | -2.78613 | 24093 ft | 414 kts | 130° |
| 2026-05-07 18:13 | 40.33997 | -2.75654 | 24405 ft | 418 kts | 130° |
| 2026-05-07 18:13 | 40.32186 | -2.72627 | 24742 ft | 423 kts | 130° |
| 2026-05-07 18:14 | 40.30362 | -2.69580 | 25047 ft | 427 kts | 130° |
| 2026-05-07 18:14 | 40.28516 | -2.66500 | 25387 ft | 431 kts | 130° |
| 2026-05-07 18:14 | 40.26661 | -2.63406 | 25881 ft | 431 kts | 130° |
| 2026-05-07 18:14 | 40.24827 | -2.60352 | 26221 ft | 435 kts | 130° |
| 2026-05-07 18:15 | 40.22914 | -2.57170 | 26533 ft | 439 kts | 130° |
| 2026-05-07 18:15 | 40.21010 | -2.54006 | 26667 ft | 448 kts | 130° |
| 2026-05-07 18:15 | 40.19082 | -2.50807 | 26842 ft | 455 kts | 130° |
| 2026-05-07 18:15 | 40.17118 | -2.47549 | 27199 ft | 458 kts | 130° |
| 2026-05-07 18:16 | 40.15130 | -2.44255 | 27517 ft | 462 kts | 130° |
| 2026-05-07 18:16 | 40.13126 | -2.40938 | 27835 ft | 466 kts | 130° |
| 2026-05-07 18:16 | 40.11103 | -2.37593 | 28144 ft | 470 kts | 130° |
| 2026-05-07 18:16 | 40.09074 | -2.34243 | 28446 ft | 474 kts | 130° |
| 2026-05-07 18:17 | 40.07009 | -2.30835 | 28731 ft | 478 kts | 130° |
| 2026-05-07 18:17 | 40.04940 | -2.27426 | 29129 ft | 480 kts | 130° |
| 2026-05-07 18:17 | 40.02892 | -2.24053 | 29680 ft | 478 kts | 130° |
| 2026-05-07 18:17 | 40.00820 | -2.20645 | 29935 ft | 482 kts | 130° |
| 2026-05-07 18:18 | 39.98736 | -2.17159 | 30004 ft | 492 kts | 127° |
| 2026-05-07 18:18 | 39.96948 | -2.13292 | 30179 ft | 500 kts | 117° |
| 2026-05-07 18:18 | 39.95388 | -2.09290 | 30465 ft | 502 kts | 118° |
| 2026-05-07 18:18 | 39.93728 | -2.05209 | 30759 ft | 504 kts | 119° |
| 2026-05-07 18:19 | 39.92058 | -2.01221 | 31035 ft | 506 kts | 120° |
| 2026-05-07 18:19 | 39.90335 | -1.97168 | 31316 ft | 508 kts | 120° |
| 2026-05-07 18:19 | 39.88624 | -1.93167 | 31686 ft | 509 kts | 120° |
| 2026-05-07 18:19 | 39.86895 | -1.89132 | 32143 ft | 506 kts | 121° |
| 2026-05-07 18:20 | 39.85196 | -1.85161 | 32934 ft | 497 kts | 121° |
| 2026-05-07 18:20 | 39.83516 | -1.81231 | 33397 ft | 497 kts | 121° |
| 2026-05-07 18:20 | 39.81828 | -1.77287 | 33743 ft | 499 kts | 121° |
| 2026-05-07 18:20 | 39.80146 | -1.73359 | 34079 ft | 500 kts | 121° |
| 2026-05-07 18:21 | 39.78460 | -1.69422 | 34355 ft | 502 kts | 121° |
| 2026-05-07 18:21 | 39.76752 | -1.65441 | 34495 ft | 508 kts | 121° |
| 2026-05-07 18:21 | 39.75017 | -1.61399 | 34870 ft | 507 kts | 121° |
| 2026-05-07 18:21 | 39.73324 | -1.57457 | 35361 ft | 502 kts | 121° |
| 2026-05-07 18:22 | 39.71626 | -1.53509 | 35851 ft | 498 kts | 121° |
| 2026-05-07 18:22 | 39.71052 | -1.52176 | 36004 ft | 497 kts | 122° |
| 2026-05-07 18:22 | 39.68830 | -1.47019 | 36815 ft | 488 kts | 122° |
| 2026-05-07 18:22 | 39.67173 | -1.43182 | 37248 ft | 485 kts | 122° |
| 2026-05-07 18:23 | 39.65521 | -1.39366 | 37584 ft | 485 kts | 122° |
| 2026-05-07 18:23 | 39.63325 | -1.34302 | 38003 ft | 485 kts | 122° |
| 2026-05-07 18:23 | 39.62210 | -1.31734 | 38233 ft | 484 kts | 122° |
| 2026-05-07 18:23 | 39.60578 | -1.27975 | 38573 ft | 483 kts | 122° |
| 2026-05-07 18:24 | 39.58919 | -1.24162 | 38863 ft | 482 kts | 122° |
| 2026-05-07 18:24 | 39.57272 | -1.20377 | 39120 ft | 480 kts | 122° |
| 2026-05-07 18:24 | 39.55625 | -1.16598 | 39333 ft | 482 kts | 122° |
| 2026-05-07 18:24 | 39.53994 | -1.12863 | 39558 ft | 481 kts | 123° |
| 2026-05-07 18:25 | 39.52345 | -1.09089 | 39947 ft | 477 kts | 123° |
| 2026-05-07 18:25 | 39.50709 | -1.05349 | 40285 ft | 474 kts | 123° |
| 2026-05-07 18:25 | 39.49084 | -1.01640 | 40554 ft | 473 kts | 123° |
| 2026-05-07 18:25 | 39.47473 | -0.97969 | 40801 ft | 472 kts | 123° |
| 2026-05-07 18:26 | 39.45847 | -0.94271 | 40949 ft | 472 kts | 123° |
| 2026-05-07 18:26 | 39.42620 | -0.86920 | 40968 ft | 467 kts | 123° |
| 2026-05-07 18:27 | 39.39426 | -0.79646 | 40976 ft | 465 kts | 123° |
| 2026-05-07 18:27 | 39.36213 | -0.72378 | 40962 ft | 465 kts | 123° |
| 2026-05-07 18:28 | 39.33016 | -0.65171 | 40967 ft | 465 kts | 123° |
| 2026-05-07 18:28 | 39.29943 | -0.57779 | 40942 ft | 470 kts | 114° |
| 2026-05-07 18:28 | 39.28974 | -0.53729 | 40942 ft | 473 kts | 103° |
| 2026-05-07 18:29 | 39.28622 | -0.49510 | 40954 ft | 474 kts | 91° |
| 2026-05-07 18:29 | 39.28844 | -0.40968 | 40955 ft | 476 kts | 86° |
| 2026-05-07 18:30 | 39.29347 | -0.32463 | 40951 ft | 477 kts | 85° |
| 2026-05-07 18:30 | 39.29857 | -0.23932 | 40953 ft | 477 kts | 86° |
| 2026-05-07 18:31 | 39.30323 | -0.15371 | 40958 ft | 477 kts | 86° |
| 2026-05-07 18:31 | 39.30758 | -0.06825 | 40954 ft | 477 kts | 86° |
| 2026-05-07 18:31 | 39.30972 | -0.02531 | 40777 ft | 481 kts | 86° |
| 2026-05-07 18:32 | 39.31185 | 0.01748 | 40632 ft | 474 kts | 87° |
| 2026-05-07 18:32 | 39.31391 | 0.05928 | 40396 ft | 469 kts | 87° |
| 2026-05-07 18:32 | 39.31597 | 0.10140 | 39887 ft | 472 kts | 86° |
| 2026-05-07 18:32 | 39.31804 | 0.14392 | 39379 ft | 475 kts | 86° |
| 2026-05-07 18:33 | 39.32011 | 0.18682 | 38898 ft | 478 kts | 86° |
| 2026-05-07 18:33 | 39.32217 | 0.22976 | 38342 ft | 480 kts | 86° |
| 2026-05-07 18:33 | 39.32421 | 0.27236 | 37831 ft | 481 kts | 86° |
| 2026-05-07 18:33 | 39.32625 | 0.31564 | 37307 ft | 480 kts | 86° |
| 2026-05-07 18:34 | 39.32828 | 0.35874 | 36832 ft | 480 kts | 86° |
| 2026-05-07 18:34 | 39.33029 | 0.40201 | 36336 ft | 480 kts | 86° |
| 2026-05-07 18:34 | 39.33226 | 0.44454 | 35822 ft | 481 kts | 86° |
| 2026-05-07 18:34 | 39.33423 | 0.48774 | 35281 ft | 481 kts | 86° |
| 2026-05-07 18:35 | 39.33621 | 0.53134 | 34465 ft | 489 kts | 85° |
| 2026-05-07 18:35 | 39.33819 | 0.57526 | 33608 ft | 496 kts | 86° |
| 2026-05-07 18:35 | 39.34019 | 0.61995 | 32702 ft | 500 kts | 86° |
| 2026-05-07 18:35 | 39.34216 | 0.66438 | 31842 ft | 503 kts | 87° |
| 2026-05-07 18:36 | 39.34416 | 0.70991 | 30920 ft | 505 kts | 87° |
| 2026-05-07 18:36 | 39.34614 | 0.75532 | 30153 ft | 504 kts | 88° |
| 2026-05-07 18:36 | 39.34806 | 0.79925 | 29773 ft | 477 kts | 89° |
| 2026-05-07 18:36 | 39.34992 | 0.84116 | 29082 ft | 452 kts | 90° |
| 2026-05-07 18:37 | 39.35165 | 0.88130 | 27709 ft | 444 kts | 90° |
| 2026-05-07 18:37 | 39.35327 | 0.92035 | 26741 ft | 432 kts | 90° |
| 2026-05-07 18:37 | 39.35486 | 0.95827 | 26257 ft | 410 kts | 90° |
| 2026-05-07 18:37 | 39.35636 | 0.99484 | 25737 ft | 404 kts | 90° |
| 2026-05-07 18:38 | 39.35781 | 1.03107 | 25228 ft | 402 kts | 90° |
| 2026-05-07 18:38 | 39.35924 | 1.06670 | 24707 ft | 400 kts | 90° |
| 2026-05-07 18:38 | 39.36067 | 1.10251 | 24182 ft | 398 kts | 90° |
| 2026-05-07 18:38 | 39.36209 | 1.13825 | 23661 ft | 396 kts | 90° |
| 2026-05-07 18:39 | 39.36350 | 1.17376 | 23066 ft | 394 kts | 90° |
| 2026-05-07 18:39 | 39.36489 | 1.20901 | 22556 ft | 390 kts | 90° |
| 2026-05-07 18:39 | 39.36624 | 1.24351 | 22045 ft | 385 kts | 90° |
| 2026-05-07 18:39 | 39.36758 | 1.27794 | 21538 ft | 382 kts | 89° |
| 2026-05-07 18:40 | 39.36889 | 1.31198 | 21036 ft | 378 kts | 89° |
| 2026-05-07 18:40 | 39.37019 | 1.34599 | 20534 ft | 376 kts | 89° |
| 2026-05-07 18:40 | 39.37147 | 1.37981 | 20007 ft | 374 kts | 89° |
| 2026-05-07 18:40 | 39.37334 | 1.41297 | 19446 ft | 375 kts | 85° |
| 2026-05-07 18:41 | 39.37719 | 1.44620 | 18947 ft | 373 kts | 82° |
| 2026-05-07 18:41 | 39.38155 | 1.47931 | 18405 ft | 373 kts | 82° |
| 2026-05-07 18:41 | 39.38597 | 1.51233 | 17831 ft | 371 kts | 82° |
| 2026-05-07 18:41 | 39.39032 | 1.54501 | 17270 ft | 367 kts | 82° |
| 2026-05-07 18:42 | 39.39458 | 1.57717 | 16741 ft | 362 kts | 82° |
| 2026-05-07 18:42 | 39.39879 | 1.60917 | 16203 ft | 358 kts | 82° |
| 2026-05-07 18:42 | 39.40293 | 1.64078 | 15684 ft | 354 kts | 82° |
| 2026-05-07 18:42 | 39.40698 | 1.67173 | 15160 ft | 350 kts | 82° |
| 2026-05-07 18:43 | 39.41102 | 1.70280 | 14643 ft | 347 kts | 82° |
| 2026-05-07 18:43 | 39.41501 | 1.73347 | 14121 ft | 344 kts | 82° |
| 2026-05-07 18:43 | 39.41891 | 1.76355 | 13595 ft | 341 kts | 82° |
| 2026-05-07 18:43 | 39.42282 | 1.79383 | 13046 ft | 337 kts | 81° |
| 2026-05-07 18:44 | 39.42665 | 1.82352 | 12536 ft | 332 kts | 81° |
| 2026-05-07 18:44 | 39.43045 | 1.85300 | 12032 ft | 328 kts | 81° |
| 2026-05-07 18:44 | 39.43418 | 1.88201 | 11534 ft | 324 kts | 81° |
| 2026-05-07 18:44 | 39.43781 | 1.91028 | 11291 ft | 312 kts | 81° |
| 2026-05-07 18:45 | 39.44122 | 1.93693 | 11210 ft | 296 kts | 81° |
| 2026-05-07 18:45 | 39.44449 | 1.96249 | 11114 ft | 281 kts | 81° |
| 2026-05-07 18:45 | 39.44762 | 1.98707 | 10984 ft | 270 kts | 81° |
| 2026-05-07 18:45 | 39.45061 | 2.01052 | 10818 ft | 261 kts | 80° |
| 2026-05-07 18:46 | 39.45361 | 2.03355 | 10423 ft | 262 kts | 84° |
| 2026-05-07 18:46 | 39.45478 | 2.05763 | 9754 ft | 274 kts | 86° |
| 2026-05-07 18:46 | 39.45566 | 2.08262 | 9099 ft | 281 kts | 86° |
| 2026-05-07 18:46 | 39.45645 | 2.10805 | 8584 ft | 281 kts | 86° |
| 2026-05-07 18:47 | 39.45719 | 2.13290 | 8187 ft | 278 kts | 86° |
| 2026-05-07 18:47 | 39.45792 | 2.15780 | 7752 ft | 276 kts | 86° |
| 2026-05-07 18:47 | 39.45865 | 2.18271 | 7323 ft | 275 kts | 86° |
| 2026-05-07 18:47 | 39.45937 | 2.20739 | 6915 ft | 272 kts | 86° |
| 2026-05-07 18:48 | 39.46007 | 2.23155 | 6461 ft | 271 kts | 86° |
| 2026-05-07 18:48 | 39.46077 | 2.25583 | 6051 ft | 269 kts | 86° |
| 2026-05-07 18:48 | 39.46146 | 2.28004 | 5605 ft | 268 kts | 86° |
| 2026-05-07 18:48 | 39.46214 | 2.30410 | 5187 ft | 266 kts | 87° |
| 2026-05-07 18:49 | 39.46283 | 2.32786 | 5005 ft | 261 kts | 87° |
| 2026-05-07 18:49 | 39.46347 | 2.35102 | 4994 ft | 261 kts | 87° |
| 2026-05-07 18:49 | 39.46412 | 2.37439 | 4993 ft | 260 kts | 87° |
| 2026-05-07 18:49 | 39.46477 | 2.39784 | 4998 ft | 259 kts | 87° |
| 2026-05-07 18:50 | 39.46540 | 2.42113 | 4834 ft | 258 kts | 87° |
| 2026-05-07 18:50 | 39.46600 | 2.44438 | 4359 ft | 258 kts | 87° |
| 2026-05-07 18:50 | 39.46660 | 2.46726 | 3700 ft | 252 kts | 88° |
| 2026-05-07 18:50 | 39.46715 | 2.48916 | 3278 ft | 238 kts | 87° |
| 2026-05-07 18:51 | 39.46772 | 2.50979 | 3197 ft | 220 kts | 88° |
| 2026-05-07 18:51 | 39.46815 | 2.52888 | 3064 ft | 203 kts | 88° |
| 2026-05-07 18:51 | 39.47006 | 2.54614 | 2982 ft | 187 kts | 74° |
| 2026-05-07 18:51 | 39.47557 | 2.56102 | 2764 ft | 180 kts | 59° |
| 2026-05-07 18:52 | 39.48233 | 2.57435 | 2492 ft | 175 kts | 58° |
| 2026-05-07 18:52 | 39.48862 | 2.58748 | 2225 ft | 164 kts | 58° |
| 2026-05-07 18:52 | 39.49432 | 2.59948 | 2018 ft | 150 kts | 59° |
| 2026-05-07 18:52 | 39.49954 | 2.61056 | 1813 ft | 138 kts | 62° |
| 2026-05-07 18:53 | 39.50436 | 2.62072 | 1651 ft | 128 kts | 62° |
| 2026-05-07 18:53 | 39.50886 | 2.63022 | 1461 ft | 121 kts | 57° |
| 2026-05-07 18:53 | 39.51327 | 2.63944 | 1326 ft | 123 kts | 58° |
| 2026-05-07 18:53 | 39.51770 | 2.64871 | 1159 ft | 120 kts | 58° |
| 2026-05-07 18:54 | 39.52211 | 2.65798 | 1004 ft | 120 kts | 58° |
| 2026-05-07 18:54 | 39.52651 | 2.66715 | 830 ft | 121 kts | 56° |
| 2026-05-07 18:54 | 39.53101 | 2.67647 | 630 ft | 120 kts | 57° |
| 2026-05-07 18:54 | 39.53542 | 2.68571 | 467 ft | 120 kts | 57° |
| 2026-05-07 18:55 | 39.53971 | 2.69483 | 372 ft | 120 kts | 57° |
| 2026-05-07 18:55 | 39.54392 | 2.70397 | 174 ft | 116 kts | 55° |
| 2026-05-07 18:55 | 39.54812 | 2.71288 | 46 ft | 115 kts | 57° |
| 2026-05-07 18:55 | 39.55240 | 2.72172 | 108 ft | 132 kts | 57° |
| 2026-05-07 18:56 | 39.55762 | 2.73315 | 781 ft | 158 kts | 57° |
| 2026-05-07 18:56 | 39.56393 | 2.74565 | 1690 ft | 164 kts | 47° |
| 2026-05-07 18:56 | 39.57245 | 2.75305 | 2866 ft | 137 kts | 31° |
| 2026-05-07 18:56 | 39.58087 | 2.75843 | 3595 ft | 137 kts | 29° |
| 2026-05-07 18:57 | 39.59015 | 2.76435 | 3967 ft | 165 kts | 29° |
| 2026-05-07 18:57 | 39.60132 | 2.77162 | 4008 ft | 188 kts | 29° |
| 2026-05-07 18:57 | 39.61304 | 2.77931 | 3982 ft | 194 kts | 28° |
| 2026-05-07 18:57 | 39.62507 | 2.78727 | 3984 ft | 194 kts | 29° |
| 2026-05-07 18:58 | 39.63716 | 2.79531 | 3993 ft | 194 kts | 30° |
| 2026-05-07 18:58 | 39.64909 | 2.80329 | 3992 ft | 193 kts | 29° |
| 2026-05-07 18:58 | 39.66074 | 2.81217 | 3993 ft | 192 kts | 38° |
| 2026-05-07 18:58 | 39.67025 | 2.82414 | 3990 ft | 192 kts | 57° |
| 2026-05-07 18:59 | 39.67377 | 2.84050 | 4003 ft | 190 kts | 94° |
| 2026-05-07 18:59 | 39.66887 | 2.85620 | 4001 ft | 192 kts | 123° |
| 2026-05-07 18:59 | 39.65998 | 2.86915 | 4005 ft | 195 kts | 131° |
| 2026-05-07 18:59 | 39.65041 | 2.88182 | 4003 ft | 197 kts | 132° |
| 2026-05-07 19:00 | 39.64084 | 2.89461 | 3997 ft | 195 kts | 132° |
| 2026-05-07 19:00 | 39.63141 | 2.90722 | 3996 ft | 194 kts | 132° |
| 2026-05-07 19:00 | 39.62213 | 2.91957 | 3996 ft | 194 kts | 132° |
| 2026-05-07 19:00 | 39.61281 | 2.93211 | 3996 ft | 194 kts | 131° |
| 2026-05-07 19:01 | 39.60335 | 2.94472 | 4008 ft | 197 kts | 132° |
| 2026-05-07 19:01 | 39.59367 | 2.95778 | 3997 ft | 201 kts | 131° |
| 2026-05-07 19:01 | 39.58402 | 2.97067 | 3991 ft | 199 kts | 132° |
| 2026-05-07 19:01 | 39.57433 | 2.98348 | 3995 ft | 197 kts | 132° |
| 2026-05-07 19:02 | 39.56472 | 2.99605 | 3994 ft | 195 kts | 131° |
| 2026-05-07 19:02 | 39.55529 | 3.00827 | 4000 ft | 194 kts | 131° |
| 2026-05-07 19:02 | 39.54535 | 3.02005 | 3994 ft | 196 kts | 145° |
| 2026-05-07 19:02 | 39.53215 | 3.02428 | 3993 ft | 199 kts | 183° |
| 2026-05-07 19:03 | 39.51960 | 3.01736 | 3988 ft | 203 kts | 219° |
| 2026-05-07 19:03 | 39.51165 | 3.00205 | 3993 ft | 207 kts | 243° |
| 2026-05-07 19:03 | 39.50609 | 2.98475 | 3992 ft | 210 kts | 246° |
| 2026-05-07 19:03 | 39.50083 | 2.96628 | 4009 ft | 227 kts | 248° |
| 2026-05-07 19:04 | 39.49513 | 2.94682 | 3998 ft | 231 kts | 247° |
| 2026-05-07 19:04 | 39.48943 | 2.92756 | 3995 ft | 232 kts | 247° |
| 2026-05-07 19:04 | 39.48364 | 2.90806 | 3995 ft | 232 kts | 247° |
| 2026-05-07 19:04 | 39.47786 | 2.88846 | 3991 ft | 233 kts | 248° |
| 2026-05-07 19:05 | 39.47200 | 2.86897 | 3993 ft | 230 kts | 248° |
| 2026-05-07 19:05 | 39.46642 | 2.85034 | 3993 ft | 219 kts | 246° |
| 2026-05-07 19:05 | 39.46101 | 2.83218 | 3981 ft | 208 kts | 247° |
| 2026-05-07 19:05 | 39.45600 | 2.81524 | 3994 ft | 202 kts | 246° |
| 2026-05-07 19:06 | 39.45102 | 2.79827 | 3988 ft | 202 kts | 248° |
| 2026-05-07 19:06 | 39.44076 | 2.76450 | 3927 ft | 202 kts | 246° |
| 2026-05-07 19:06 | 39.43572 | 2.74747 | 3642 ft | 203 kts | 249° |
| 2026-05-07 19:07 | 39.43061 | 2.73039 | 3474 ft | 202 kts | 248° |
| 2026-05-07 19:07 | 39.42567 | 2.71359 | 3262 ft | 198 kts | 248° |
| 2026-05-07 19:07 | 39.42246 | 2.70254 | 3140 ft | 198 kts | 247° |
| 2026-05-07 19:07 | 39.41613 | 2.68014 | 3016 ft | 199 kts | 248° |
| 2026-05-07 19:08 | 39.41286 | 2.66910 | 3014 ft | 199 kts | 249° |
| 2026-05-07 19:08 | 39.40771 | 2.65240 | 3024 ft | 199 kts | 247° |
| 2026-05-07 19:08 | 39.40284 | 2.63564 | 3018 ft | 200 kts | 252° |
| 2026-05-07 19:08 | 39.39935 | 2.61817 | 3021 ft | 201 kts | 257° |
| 2026-05-07 19:09 | 39.39609 | 2.60066 | 3012 ft | 200 kts | 254° |
| 2026-05-07 19:09 | 39.39301 | 2.58300 | 3016 ft | 204 kts | 257° |
| 2026-05-07 19:09 | 39.38974 | 2.56529 | 3012 ft | 201 kts | 257° |
| 2026-05-07 19:09 | 39.38641 | 2.54757 | 3011 ft | 205 kts | 257° |
| 2026-05-07 19:10 | 39.38311 | 2.52964 | 3016 ft | 204 kts | 257° |
| 2026-05-07 19:10 | 39.37973 | 2.51182 | 3007 ft | 203 kts | 257° |
| 2026-05-07 19:10 | 39.37661 | 2.49400 | 3007 ft | 203 kts | 264° |
| 2026-05-07 19:10 | 39.37678 | 2.47592 | 2984 ft | 201 kts | 283° |
| 2026-05-07 19:11 | 39.38305 | 2.46081 | 3007 ft | 192 kts | 322° |
| 2026-05-07 19:11 | 39.39460 | 2.45420 | 3041 ft | 181 kts | 360° |
| 2026-05-07 19:11 | 39.40696 | 2.45720 | 3024 ft | 181 kts | 22° |
| 2026-05-07 19:11 | 39.41862 | 2.46351 | 3009 ft | 182 kts | 26° |
| 2026-05-07 19:12 | 39.42960 | 2.47150 | 3008 ft | 180 kts | 41° |
| 2026-05-07 19:12 | 39.43799 | 2.48317 | 3013 ft | 176 kts | 55° |
| 2026-05-07 19:12 | 39.44484 | 2.49627 | 3007 ft | 174 kts | 58° |
| 2026-05-07 19:12 | 39.45088 | 2.50881 | 2989 ft | 159 kts | 59° |
| 2026-05-07 19:13 | 39.45658 | 2.52057 | 2983 ft | 150 kts | 60° |
| 2026-05-07 19:13 | 39.46200 | 2.53187 | 3027 ft | 143 kts | 58° |
| 2026-05-07 19:13 | 39.46711 | 2.54256 | 2996 ft | 137 kts | 60° |
| 2026-05-07 19:13 | 39.47212 | 2.55304 | 2874 ft | 137 kts | 58° |
| 2026-05-07 19:14 | 39.47714 | 2.56350 | 2708 ft | 136 kts | 62° |
| 2026-05-07 19:14 | 39.48214 | 2.57398 | 2499 ft | 137 kts | 63° |
| 2026-05-07 19:14 | 39.48700 | 2.58429 | 2295 ft | 132 kts | 59° |
| 2026-05-07 19:14 | 39.49179 | 2.59436 | 2132 ft | 132 kts | 59° |
| 2026-05-07 19:15 | 39.49643 | 2.60402 | 1954 ft | 120 kts | 58° |
| 2026-05-07 19:15 | 39.50081 | 2.61323 | 1805 ft | 120 kts | 59° |
| 2026-05-07 19:15 | 39.50518 | 2.62248 | 1646 ft | 120 kts | 60° |
| 2026-05-07 19:15 | 39.50962 | 2.63177 | 1481 ft | 121 kts | 59° |
| 2026-05-07 19:16 | 39.51404 | 2.64103 | 1310 ft | 120 kts | 57° |
| 2026-05-07 19:16 | 39.51841 | 2.65021 | 1134 ft | 119 kts | 59° |
| 2026-05-07 19:16 | 39.52274 | 2.65934 | 981 ft | 119 kts | 57° |
| 2026-05-07 19:16 | 39.52714 | 2.66848 | 787 ft | 118 kts | 56° |
| 2026-05-07 19:17 | 39.53152 | 2.67737 | 654 ft | 119 kts | 59° |
| 2026-05-07 19:17 | 39.53578 | 2.68651 | 486 ft | 118 kts | 63° |
| 2026-05-07 19:17 | 39.54001 | 2.69584 | 330 ft | 120 kts | 58° |
| 2026-05-07 19:17 | 39.54432 | 2.70477 | 153 ft | 117 kts | 57° |
| 2026-05-07 19:18 | 39.54849 | 2.71367 | 31 ft | 112 kts | 56° |
| 2026-05-07 19:18 | 39.55196 | 2.72089 | 31 ft | 77 kts | 59° |
| 2026-05-07 19:18 | 39.55380 | 2.72479 | 28 ft | 41 kts | 59° |
| 2026-05-07 19:18 | 39.55499 | 2.72753 | 29 ft | 25 kts | 76° |
| 2026-05-07 19:19 | 39.55502 | 2.72948 | 30 ft | 19 kts | 95° |
| 2026-05-07 19:19 | 39.55495 | 2.73075 | 30 ft | 6 kts | 96° |
| 2026-05-07 19:19 | 39.55494 | 2.73094 | 30 ft | 3 kts | 93° |
| 2026-05-07 19:19 | 39.55501 | 2.73140 | 30 ft | 6 kts | 65° |
| 2026-05-07 19:20 | 39.55529 | 2.73200 | 30 ft | 7 kts | 59° |
| 2026-05-07 19:20 | 39.55550 | 2.73273 | 30 ft | 12 kts | 68° |
| 2026-05-07 19:20 | 39.55599 | 2.73383 | 30 ft | 17 kts | 58° |
| 2026-05-07 19:20 | 39.55625 | 2.73500 | 31 ft | 7 kts | 108° |
| 2026-05-07 19:21 | 39.55609 | 2.73514 | 31 ft | 5 kts | 153° |
| 2026-05-07 19:21 | 39.55569 | 2.73539 | 32 ft | 6 kts | 153° |
| 2026-05-07 19:21 | 39.55518 | 2.73560 | 34 ft | 9 kts | 184° |
| 2026-05-07 19:21 | 39.55471 | 2.73504 | 35 ft | 12 kts | 237° |
| 2026-05-07 19:22 | 39.55428 | 2.73439 | 35 ft | 1 kts | 197° |
| 2026-05-07 19:22 | 39.55414 | 2.73448 | 36 ft | 3 kts | 153° |
| 2026-05-07 19:22 | 39.55372 | 2.73482 | 37 ft | 12 kts | 146° |
| 2026-05-07 19:22 | 39.55285 | 2.73558 | 40 ft | 15 kts | 146° |
| 2026-05-07 19:23 | 39.55205 | 2.73608 | 40 ft | 9 kts | 167° |
| 2026-05-07 19:23 | 39.55176 | 2.73588 | 40 ft | 3 kts | 224° |
| 2026-05-07 19:23 | 39.55163 | 2.73568 | 40 ft | 3 kts | 232° |
| 2026-05-07 19:23 | 39.55142 | 2.73528 | 40 ft | 8 kts | 238° |
| 2026-05-07 19:24 | 39.55107 | 2.73452 | 40 ft | 12 kts | 239° |
| 2026-05-07 19:24 | 39.55088 | 2.73415 | 40 ft | 4 kts | 234° |
| 2026-05-07 19:24 | 39.55055 | 2.73388 | 40 ft | 8 kts | 205° |
| 2026-05-07 19:24 | 39.55004 | 2.73389 | 40 ft | 3 kts | 166° |
| 2026-05-07 19:25 | 39.54989 | 2.73393 | 40 ft | 2 kts | 166° |